Time;durP1;ratioP1;P1;durP2;ratioP2;P2;SDS_P1;SDS_P2;PMS_P1;PMS_P2;Temp;Humidity;BMP_temperature;BMP_pressure;BME280_temperature;BME280_humidity;BME280_pressure;Samples;Min_cycle;Max_cycle;Signal;HPM_P1;HPM_P2
2021/12/31 00:01:14;;;;;;;2.00;1.67;;;;;;;10.01;100.00;96894.03;5114897;27;20464;-76
2021/12/31 00:03:41;;;;;;;2.20;2.00;;;;;;;10.10;100.00;96903.84;5097957;27;20549;-75
2021/12/31 00:06:08;;;;;;;2.73;2.10;;;;;;;10.06;100.00;96904.47;5097743;27;20469;-75
2021/12/31 00:08:34;;;;;;;4.23;2.10;;;;;;;9.89;100.00;96875.38;5114458;27;20465;-75
2021/12/31 00:11:01;;;;;;;1.83;1.73;;;;;;;9.94;100.00;96879.75;5097604;27;20919;-75
2021/12/31 00:13:29;;;;;;;3.33;1.60;;;;;;;9.97;100.00;96895.75;5114030;27;20437;-77
2021/12/31 00:15:56;;;;;;;1.77;1.67;;;;;;;9.88;100.00;96891.53;5115916;27;20445;-77
2021/12/31 00:18:23;;;;;;;6.63;2.00;;;;;;;9.95;100.00;96911.13;5133122;27;21352;-77
2021/12/31 00:20:50;;;;;;;1.93;1.77;;;;;;;9.92;100.00;96897.75;5097834;27;20485;-77
2021/12/31 00:23:20;;;;;;;2.13;1.47;;;;;;;10.04;100.00;96909.28;5133085;27;20457;-77
2021/12/31 00:25:47;;;;;;;1.80;1.70;;;;;;;9.95;100.00;96891.84;5097538;28;20426;-77
2021/12/31 00:28:13;;;;;;;8.20;1.90;;;;;;;9.96;100.00;96903.97;5132872;27;20449;-76
2021/12/31 00:30:40;;;;;;;1.97;1.87;;;;;;;9.95;100.00;96891.84;5097415;27;20573;-77
2021/12/31 00:33:08;;;;;;;2.30;2.00;;;;;;;9.92;100.00;96881.91;5114566;27;20985;-77
2021/12/31 00:35:37;;;;;;;2.30;2.10;;;;;;;9.92;100.00;96880.06;5114271;27;20521;-77
2021/12/31 00:38:05;;;;;;;2.63;2.13;;;;;;;9.98;100.00;96883.31;5114353;27;20449;-77
2021/12/31 00:40:31;;;;;;;2.53;1.93;;;;;;;10.02;100.00;96889.56;5132480;27;20787;-77
2021/12/31 00:42:58;;;;;;;2.57;2.20;;;;;;;10.08;100.00;96909.44;5114219;27;21189;-77
2021/12/31 00:45:25;;;;;;;2.73;2.10;;;;;;;10.11;100.00;96905.41;5114172;28;20433;-77
2021/12/31 00:47:53;;;;;;;2.27;2.07;;;;;;;10.10;100.00;96907.28;5114555;27;20872;-77
2021/12/31 00:50:20;;;;;;;4.93;2.00;;;;;;;10.10;100.00;96906.50;5113984;27;20433;-77
2021/12/31 00:52:48;;;;;;;1.73;1.60;;;;;;;10.07;100.00;96894.69;5097096;28;20430;-77
2021/12/31 00:55:15;;;;;;;3.33;2.50;;;;;;;10.06;100.00;96904.47;5114146;27;20482;-77
2021/12/31 00:57:43;;;;;;;2.70;2.03;;;;;;;10.11;100.00;96908.81;5114145;28;20461;-77
2021/12/31 01:00:13;;;;;;;2.47;1.80;;;;;;;10.13;100.00;96916.44;5096926;27;20484;-77
2021/12/31 01:02:43;;;;;;;1.97;1.87;;;;;;;10.16;100.00;96913.97;5132353;28;20457;-77
2021/12/31 01:05:11;;;;;;;2.97;2.77;;;;;;;10.07;100.00;96913.19;5114006;28;20992;-77
2021/12/31 01:07:39;;;;;;;2.83;2.20;;;;;;;10.11;100.00;96926.53;5132281;28;20459;-77
2021/12/31 01:10:10;;;;;;;2.57;2.40;;;;;;;10.04;100.00;96929.66;5113960;28;20439;-77
2021/12/31 01:12:37;;;;;;;2.50;2.30;;;;;;;10.03;100.00;96923.59;5113693;28;20476;-77
2021/12/31 01:15:09;;;;;;;2.47;2.27;;;;;;;10.17;100.00;96938.53;5113887;28;20948;-77
2021/12/31 01:20:05;;;;;;;3.80;2.27;;;;;;;10.20;100.00;96943.22;5113660;28;20532;-77
2021/12/31 01:22:33;;;;;;;2.60;2.40;;;;;;;10.20;100.00;96935.28;5113756;28;20470;-77
2021/12/31 01:25:01;;;;;;;2.03;1.87;;;;;;;10.15;100.00;96930.13;5135212;27;20429;-77
2021/12/31 01:27:27;;;;;;;2.47;2.00;;;;;;;10.08;100.00;96922.66;5118340;27;20491;-77
2021/12/31 01:29:54;;;;;;;2.37;2.17;;;;;;;10.10;100.00;96932.91;5136463;27;20974;-77
2021/12/31 01:32:20;;;;;;;2.70;2.00;;;;;;;10.12;100.00;96926.22;5118070;27;20477;-77
2021/12/31 01:34:47;;;;;;;4.10;2.17;;;;;;;10.16;100.00;96932.47;5101049;27;21004;-77
2021/12/31 01:37:14;;;;;;;4.13;2.70;;;;;;;10.17;100.00;96939.31;5136145;27;20429;-76
2021/12/31 01:40:01;;;;;;;3.53;2.20;;;;;;;10.11;100.00;96916.75;5117560;27;20422;-76
2021/12/31 01:42:32;;;;;;;2.10;1.90;;;;;;;10.18;100.00;96935.59;5015584;28;20497;-76
2021/12/31 01:45:14;;;;;;;2.13;1.93;;;;;;;10.12;100.00;96920.94;5015822;28;21052;-75
2021/12/31 01:50:22;;;;;;;2.20;2.10;;;;;;;10.24;100.00;96929.09;5015486;28;20499;-76
2021/12/31 01:52:48;;;;;;;7.27;2.00;;;;;;;10.10;100.00;96904.63;4999004;28;20496;-76
2021/12/31 01:55:16;;;;;;;2.23;2.03;;;;;;;10.22;100.00;96925.19;5015565;28;20465;-76
2021/12/31 01:57:43;;;;;;;2.50;2.30;;;;;;;10.25;100.00;96927.22;5032107;28;20492;-76
2021/12/31 02:00:11;;;;;;;2.30;2.07;;;;;;;10.24;100.00;96934.38;4998951;28;20519;-76
2021/12/31 02:02:41;;;;;;;4.90;2.03;;;;;;;10.21;100.00;96929.72;5015171;28;20506;-76
2021/12/31 02:05:08;;;;;;;2.40;2.20;;;;;;;10.13;100.00;96908.50;5015383;28;20565;-76
2021/12/31 02:07:38;;;;;;;2.90;2.47;;;;;;;10.23;100.00;96921.47;5015618;28;20613;-76
2021/12/31 02:10:06;;;;;;;5.53;2.47;;;;;;;10.02;100.00;96900.91;4998905;28;20543;-76
2021/12/31 02:12:32;;;;;;;2.33;2.13;;;;;;;10.16;100.00;96926.41;4998781;28;20923;-76
2021/12/31 02:14:59;;;;;;;3.13;2.60;;;;;;;10.09;100.00;96913.66;5031993;28;20438;-76
2021/12/31 02:17:26;;;;;;;2.67;2.47;;;;;;;10.21;100.00;96929.72;5014907;28;21007;-76
2021/12/31 02:20:05;;;;;;;3.27;2.77;;;;;;;10.14;100.00;96923.28;5080613;27;20441;-76
2021/12/31 02:22:38;;;;;;;3.23;2.30;;;;;;;10.14;100.00;96931.97;5135098;27;20889;-76
2021/12/31 02:25:08;;;;;;;2.97;2.67;;;;;;;10.14;100.00;96921.41;5116538;27;20900;-76
2021/12/31 02:27:37;;;;;;;3.37;2.20;;;;;;;10.18;100.00;96930.31;5116333;27;20453;-76
2021/12/31 02:30:06;;;;;;;1.97;1.80;;;;;;;10.19;100.00;96933.72;5116310;27;20532;-76
2021/12/31 02:32:33;;;;;;;2.43;2.23;;;;;;;10.26;100.00;96939.34;5116257;27;20470;-76
2021/12/31 02:35:01;;;;;;;2.60;2.43;;;;;;;10.15;100.00;96914.25;5098830;27;20500;-76
2021/12/31 02:37:28;;;;;;;2.23;2.10;;;;;;;10.14;100.00;96913.50;5116098;27;20504;-76
2021/12/31 02:39:56;;;;;;;2.23;1.90;;;;;;;10.25;100.00;96933.28;5115860;27;20498;-76
2021/12/31 02:42:22;;;;;;;3.10;2.07;;;;;;;10.14;100.00;96908.19;5098922;27;20852;-76
2021/12/31 02:44:51;;;;;;;3.43;2.47;;;;;;;10.27;100.00;96927.69;5115961;27;20441;-76
2021/12/31 02:47:18;;;;;;;2.50;2.20;;;;;;;10.16;100.00;96907.91;5116065;27;20465;-76
2021/12/31 02:49:46;;;;;;;3.07;2.77;;;;;;;10.21;100.00;96907.75;5115910;27;20438;-76
2021/12/31 02:52:15;;;;;;;2.70;2.50;;;;;;;10.27;100.00;96909.19;5116179;27;20487;-76
2021/12/31 02:54:45;;;;;;;2.43;2.17;;;;;;;10.28;100.00;96916.03;5134376;27;20426;-76
2021/12/31 02:57:14;;;;;;;2.80;2.47;;;;;;;10.23;100.00;96914.31;5115856;27;20486;-76
2021/12/31 02:59:41;;;;;;;3.50;3.30;;;;;;;10.21;100.00;96905.13;5115805;27;20490;-76
2021/12/31 03:02:08;;;;;;;2.93;2.73;;;;;;;10.13;100.00;96893.44;5115581;27;20465;-76
2021/12/31 03:04:39;;;;;;;5.80;2.23;;;;;;;10.22;100.00;96910.13;5115823;27;20429;-76
2021/12/31 03:07:09;;;;;;;3.33;2.30;;;;;;;10.17;100.00;96899.69;5115490;27;20469;-76
2021/12/31 03:09:38;;;;;;;2.07;1.97;;;;;;;10.24;100.00;96913.22;5115648;27;20426;-76
2021/12/31 03:12:07;;;;;;;4.33;2.60;;;;;;;10.30;100.00;96922.59;5133926;27;20426;-76
2021/12/31 03:14:37;;;;;;;2.63;2.43;;;;;;;10.05;100.00;96887.06;5115746;27;20964;-76
2021/12/31 03:17:05;;;;;;;4.63;2.50;;;;;;;10.15;100.00;96903.69;5133665;27;20464;-77
2021/12/31 03:19:32;;;;;;;2.60;2.40;;;;;;;10.30;100.00;96921.81;5098364;27;20448;-76
2021/12/31 03:21:58;;;;;;;8.20;3.00;;;;;;;10.31;100.00;96923.34;5133692;27;20525;-77
2021/12/31 03:24:25;;;;;;;2.60;2.40;;;;;;;10.16;100.00;96903.41;5115279;27;20473;-76
2021/12/31 03:26:53;;;;;;;4.07;2.70;;;;;;;10.18;100.00;96908.38;5115203;27;20970;-76
2021/12/31 03:29:20;;;;;;;4.90;2.03;;;;;;;10.23;100.00;96916.19;5115321;27;20498;-77
2021/12/31 03:31:47;;;;;;;2.90;2.50;;;;;;;10.27;100.00;96917.88;5115353;27;20438;-76
2021/12/31 03:34:14;;;;;;;2.43;1.83;;;;;;;10.23;100.00;96910.91;5115319;27;20944;-76
2021/12/31 03:36:44;;;;;;;2.57;2.23;;;;;;;10.32;100.00;96927.56;5098089;27;20461;-76
2021/12/31 03:39:11;;;;;;;4.77;2.47;;;;;;;10.28;100.00;96922.13;5115132;27;20459;-76
2021/12/31 03:41:38;;;;;;;3.33;2.73;;;;;;;10.33;100.00;96926.47;5115068;27;20471;-76
2021/12/31 03:44:06;;;;;;;3.73;2.07;;;;;;;10.31;100.00;96924.13;5114854;27;20857;-77
2021/12/31 03:46:33;;;;;;;1.93;1.83;;;;;;;10.30;100.00;96919.16;5114093;27;20468;-76
2021/12/31 03:49:00;;;;;;;2.07;1.93;;;;;;;10.17;100.00;96898.91;5115054;27;20465;-76
2021/12/31 03:51:26;;;;;;;2.57;2.37;;;;;;;10.30;100.00;96919.16;5133179;27;20421;-76
2021/12/31 03:53:53;;;;;;;2.50;2.20;;;;;;;10.28;100.00;96922.13;5115035;27;20430;-76
2021/12/31 03:56:22;;;;;;;5.93;1.97;;;;;;;10.07;100.00;96895.47;5114707;27;20438;-76
2021/12/31 03:58:49;;;;;;;2.17;1.97;;;;;;;10.25;100.00;96933.28;5114648;27;20463;-77
2021/12/31 04:01:15;;;;;;;7.40;2.30;;;;;;;10.34;100.00;96938.59;5132965;27;20478;-76
2021/12/31 04:03:42;;;;;;;1.87;1.77;;;;;;;10.31;100.00;96937.34;5133001;27;20550;-76
2021/12/31 04:06:09;;;;;;;1.83;1.70;;;;;;;10.34;100.00;96941.25;5114673;27;20529;-76
2021/12/31 04:08:36;;;;;;;7.10;5.00;;;;;;;10.33;100.00;96945.75;5132886;27;20473;-77
2021/12/31 04:11:04;;;;;;;4.60;3.87;;;;;;;10.32;100.00;96940.78;5114574;27;20533;-76
2021/12/31 04:13:30;;;;;;;4.60;2.60;;;;;;;10.16;100.00;96916.63;5114248;27;21258;-77
2021/12/31 04:15:57;;;;;;;4.30;3.90;;;;;;;10.27;100.00;96932.97;5114280;27;20490;-76
2021/12/31 04:18:26;;;;;;;3.07;2.70;;;;;;;10.28;100.00;96947.75;5097671;27;20515;-76
2021/12/31 04:20:56;;;;;;;4.10;2.93;;;;;;;10.16;100.00;96927.19;5114231;27;20438;-76
2021/12/31 04:23:28;;;;;;;3.67;2.10;;;;;;;10.25;100.00;96949.13;5114129;27;20504;-76
2021/12/31 04:25:57;;;;;;;2.13;1.70;;;;;;;10.25;100.00;96935.16;5097271;27;20921;-76
2021/12/31 04:28:25;;;;;;;3.20;1.97;;;;;;;10.12;100.00;96918.31;5113871;27;20489;-77
2021/12/31 04:30:51;;;;;;;2.97;2.23;;;;;;;10.15;100.00;96919.56;5114216;27;21142;-76
2021/12/31 04:33:19;;;;;;;2.90;2.33;;;;;;;10.21;100.00;96939.47;5114076;27;20482;-76
2021/12/31 04:35:46;;;;;;;10.30;7.37;;;;;;;10.16;100.00;96932.47;5113851;27;20520;-76
2021/12/31 04:38:12;;;;;;;3.60;2.37;;;;;;;10.18;100.00;96924.25;5113744;27;20453;-76
2021/12/31 04:40:39;;;;;;;3.47;2.30;;;;;;;10.21;100.00;96931.53;5113986;27;20472;-76
2021/12/31 04:43:06;;;;;;;2.70;1.70;;;;;;;10.10;100.00;96923.13;5113909;27;20497;-76
2021/12/31 04:45:33;;;;;;;2.80;2.60;;;;;;;10.20;100.00;96940.56;5113941;27;20469;-76
2021/12/31 04:48:01;;;;;;;3.87;2.70;;;;;;;10.05;100.00;96921.41;5132327;27;20445;-76
2021/12/31 04:50:28;;;;;;;8.00;5.37;;;;;;;10.13;100.00;96932.28;5096940;27;20482;-76
2021/12/31 04:52:54;;;;;;;3.30;2.13;;;;;;;10.18;100.00;96943.50;5132170;27;20460;-76
2021/12/31 04:55:21;;;;;;;1.97;1.87;;;;;;;10.05;100.00;96924.06;5114022;27;20449;-76
2021/12/31 04:57:49;;;;;;;2.30;2.20;;;;;;;10.10;100.00;96943.47;5113424;28;20462;-76
2021/12/31 05:00:16;;;;;;;3.20;1.70;;;;;;;10.06;100.00;96936.19;5113941;27;20468;-76
2021/12/31 05:02:43;;;;;;;2.33;1.70;;;;;;;10.14;100.00;96939.91;5113833;28;20493;-77
2021/12/31 05:05:11;;;;;;;4.60;2.00;;;;;;;10.15;100.00;96949.41;5096829;28;20438;-76
2021/12/31 05:07:37;;;;;;;3.63;1.90;;;;;;;10.15;100.00;96959.19;5113650;28;20493;-76
2021/12/31 05:10:05;;;;;;;4.70;2.50;;;;;;;9.98;100.00;96929.00;5113767;28;20465;-76
2021/12/31 05:12:34;;;;;;;2.50;2.20;;;;;;;10.15;100.00;96951.25;5132240;28;20425;-76
2021/12/31 05:15:01;;;;;;;3.13;2.87;;;;;;;10.02;100.00;96927.31;5113464;28;20482;-76
2021/12/31 05:17:28;;;;;;;2.10;1.97;;;;;;;9.86;100.00;96907.69;5113437;28;20469;-76
2021/12/31 05:19:54;;;;;;;2.33;1.93;;;;;;;9.97;100.00;96924.81;5113395;28;21023;-76
2021/12/31 05:22:21;;;;;;;4.17;2.50;;;;;;;10.06;100.00;96924.84;5113642;28;20453;-77
2021/12/31 05:24:48;;;;;;;3.10;2.00;;;;;;;10.04;100.00;96929.66;5131985;28;20425;-76
2021/12/31 05:27:14;;;;;;;3.23;2.13;;;;;;;10.02;100.00;96927.31;5113231;28;20498;-76
2021/12/31 05:29:41;;;;;;;6.63;2.73;;;;;;;10.16;100.00;96939.63;5131888;28;20426;-76
2021/12/31 05:32:08;;;;;;;3.17;2.20;;;;;;;10.11;100.00;96939.75;5096752;28;20528;-76
2021/12/31 05:34:35;;;;;;;2.70;2.50;;;;;;;9.95;100.00;96923.56;5113250;28;20529;-76
2021/12/31 05:37:02;;;;;;;2.50;2.30;;;;;;;10.08;100.00;96946.44;5131583;28;20797;-76
2021/12/31 05:39:28;;;;;;;3.77;2.30;;;;;;;10.08;100.00;96938.50;5096628;28;20444;-76
2021/12/31 05:41:55;;;;;;;2.30;2.10;;;;;;;9.95;100.00;96910.34;5113257;28;20466;-76
2021/12/31 05:44:23;;;;;;;5.50;2.20;;;;;;;10.06;100.00;96932.75;5131719;28;20993;-76
2021/12/31 05:46:52;;;;;;;3.13;2.43;;;;;;;9.85;100.00;96903.47;5131662;28;20425;-76
2021/12/31 05:49:27;;;;;;;5.80;3.20;;;;;;;9.91;100.00;96922.63;5113194;28;20435;-76
2021/12/31 05:51:54;;;;;;;4.50;3.20;;;;;;;10.03;100.00;96928.09;5113387;28;20429;-76
2021/12/31 05:54:21;;;;;;;2.63;2.27;;;;;;;10.02;100.00;96935.25;5113168;28;20469;-76
2021/12/31 05:56:48;;;;;;;4.37;3.23;;;;;;;10.04;100.00;96941.00;5113190;28;20987;-76
2021/12/31 05:59:15;;;;;;;3.27;2.53;;;;;;;9.91;100.00;96919.97;5096456;28;20812;-76
2021/12/31 06:01:45;;;;;;;3.30;2.33;;;;;;;10.03;100.00;96942.09;5131443;28;20950;-76
2021/12/31 06:04:12;;;;;;;6.60;2.63;;;;;;;10.05;100.00;96934.63;5112883;28;20453;-76
2021/12/31 06:06:39;;;;;;;4.13;3.60;;;;;;;9.97;100.00;96926.66;5113038;28;20974;-76
2021/12/31 06:09:07;;;;;;;4.67;2.30;;;;;;;10.02;100.00;96934.47;5096037;27;20489;-76
2021/12/31 06:11:34;;;;;;;2.77;2.33;;;;;;;10.05;100.00;96941.78;5116068;27;20441;-76
2021/12/31 06:14:03;;;;;;;2.27;2.10;;;;;;;9.92;100.00;96921.53;5116650;27;20461;-76
2021/12/31 06:16:37;;;;;;;2.37;1.90;;;;;;;10.01;100.00;96931.03;5135090;27;20418;-76
2021/12/31 06:19:05;;;;;;;3.47;2.40;;;;;;;9.89;100.00;96922.16;5116414;27;21021;-76
2021/12/31 06:21:37;;;;;;;2.77;2.47;;;;;;;9.85;100.00;96915.91;5116519;27;20528;-76
2021/12/31 06:24:04;;;;;;;5.53;2.90;;;;;;;9.94;100.00;96922.00;5134967;27;20922;-76
2021/12/31 06:26:31;;;;;;;3.10;2.60;;;;;;;9.99;100.00;96929.78;5116799;27;20461;-76
2021/12/31 06:28:58;;;;;;;5.10;4.50;;;;;;;9.89;100.00;96916.88;5099389;27;20500;-76
2021/12/31 06:31:26;;;;;;;4.80;4.30;;;;;;;9.83;100.00;96915.44;5134844;27;20461;-76
2021/12/31 06:33:53;;;;;;;3.67;3.23;;;;;;;9.94;100.00;96938.63;5116530;27;20932;-76
2021/12/31 06:36:20;;;;;;;4.90;4.07;;;;;;;9.80;100.00;96923.97;5099364;27;20477;-76
2021/12/31 06:38:49;;;;;;;2.27;2.07;;;;;;;9.85;100.00;96931.75;5116094;27;20486;-76
2021/12/31 06:41:16;;;;;;;2.80;2.60;;;;;;;9.77;100.00;96923.50;5134669;27;20554;-76
2021/12/31 06:43:43;;;;;;;2.60;2.40;;;;;;;9.81;100.00;96925.53;5116024;27;20492;-77
2021/12/31 06:46:10;;;;;;;4.20;3.80;;;;;;;9.88;100.00;96933.78;5116005;27;20437;-76
2021/12/31 06:48:37;;;;;;;6.20;5.20;;;;;;;9.86;100.00;96935.94;5116041;27;20453;-76
2021/12/31 06:51:03;;;;;;;3.60;2.63;;;;;;;9.84;100.00;96930.97;5115945;27;21176;-76
2021/12/31 06:53:30;;;;;;;4.97;4.20;;;;;;;9.87;100.00;96935.66;5099108;27;20843;-77
2021/12/31 06:55:57;;;;;;;4.23;3.00;;;;;;;9.80;100.00;96924.75;5134357;27;20473;-76
2021/12/31 06:58:23;;;;;;;7.93;2.53;;;;;;;9.71;100.00;96919.44;5115765;27;20557;-76
2021/12/31 07:00:50;;;;;;;3.30;2.60;;;;;;;9.68;100.00;96925.34;5115777;27;20809;-77
2021/12/31 07:03:17;;;;;;;2.90;2.57;;;;;;;9.70;100.00;96927.66;5115895;27;20992;-76
2021/12/31 07:05:45;;;;;;;3.67;3.03;;;;;;;9.80;100.00;96947.75;5115855;27;20465;-77
2021/12/31 07:08:13;;;;;;;3.47;2.67;;;;;;;9.53;100.00;96930.25;5115577;27;20506;-77
2021/12/31 07:10:40;;;;;;;3.93;2.10;;;;;;;9.45;100.00;96948.38;5115955;27;20457;-76
2021/12/31 07:13:11;;;;;;;3.00;2.60;;;;;;;9.51;100.00;96953.53;5115498;27;20449;-77
2021/12/31 07:15:39;;;;;;;2.60;2.40;;;;;;;9.47;100.00;96962.03;5115374;27;20434;-77
2021/12/31 07:18:07;;;;;;;4.40;3.10;;;;;;;9.29;100.00;96954.34;5133900;27;20552;-77
2021/12/31 07:20:36;;;;;;;4.50;2.43;;;;;;;9.19;100.00;96950.09;5115912;27;20988;-77
2021/12/31 07:23:08;;;;;;;7.30;3.40;;;;;;;9.38;100.00;96960.44;5115290;27;20820;-77
2021/12/31 07:25:35;;;;;;;4.67;3.23;;;;;;;9.33;100.00;96961.34;5115605;27;20513;-77
2021/12/31 07:28:02;;;;;;;3.87;3.50;;;;;;;9.37;100.00;96961.53;5115161;27;20489;-76
2021/12/31 07:30:29;;;;;;;4.07;3.77;;;;;;;9.44;100.00;96978.47;5115166;27;20528;-76
2021/12/31 07:32:56;;;;;;;4.33;3.30;;;;;;;9.60;100.00;96981.50;5098133;27;20445;-77
2021/12/31 07:35:24;;;;;;;4.27;3.60;;;;;;;9.63;100.00;96957.16;5115410;27;20488;-77
2021/12/31 07:37:55;;;;;;;5.27;4.50;;;;;;;9.58;100.00;96957.28;5133520;27;20446;-77
2021/12/31 07:40:39;;;;;;;4.43;3.90;;;;;;;9.75;100.00;96983.78;5133482;27;20471;-77
2021/12/31 07:43:06;;;;;;;3.40;3.10;;;;;;;9.71;100.00;96969.59;5115072;27;20851;-77
2021/12/31 07:45:33;;;;;;;5.33;3.50;;;;;;;9.52;100.00;96960.38;5114955;27;20473;-77
2021/12/31 07:48:01;;;;;;;3.77;2.73;;;;;;;9.62;100.00;96986.50;5115059;27;20451;-77
2021/12/31 07:50:29;;;;;;;3.50;3.20;;;;;;;9.33;100.00;96979.81;5114780;27;20490;-77
2021/12/31 07:52:55;;;;;;;5.77;2.50;;;;;;;9.22;100.00;96969.84;5114683;27;20968;-77
2021/12/31 07:55:22;;;;;;;3.67;3.37;;;;;;;9.20;100.00;96962.19;5114675;27;20485;-77
2021/12/31 07:57:49;;;;;;;5.83;3.50;;;;;;;9.21;100.00;96941.84;5133303;27;20453;-76
2021/12/31 08:00:16;;;;;;;5.13;3.40;;;;;;;9.62;100.00;96986.50;5133503;27;20453;-77
2021/12/31 08:02:42;;;;;;;4.63;2.60;;;;;;;9.48;100.00;96976.00;5098050;27;20465;-77
2021/12/31 08:05:10;;;;;;;2.80;2.30;;;;;;;9.62;100.00;96989.16;5098579;27;20856;-77
2021/12/31 08:07:36;;;;;;;5.83;2.70;;;;;;;9.67;100.00;96983.72;5132975;27;20488;-77
2021/12/31 08:10:04;;;;;;;4.33;2.90;;;;;;;9.66;100.00;96982.19;5097588;27;20529;-77
2021/12/31 08:12:50;;;;;;;3.40;3.10;;;;;;;9.54;100.00;96984.59;5100195;27;20521;-76
2021/12/31 08:15:17;;;;;;;3.30;2.93;;;;;;;9.46;100.00;96980.81;5097670;27;20433;-77
2021/12/31 08:17:44;;;;;;;2.47;2.27;;;;;;;9.62;100.00;96987.28;5114280;27;20510;-77
2021/12/31 08:20:11;;;;;;;4.20;3.90;;;;;;;9.67;100.00;97005.63;5114249;27;20434;-76
2021/12/31 08:22:37;;;;;;;6.20;3.07;;;;;;;9.65;100.00;97007.81;5132813;27;20439;-77
2021/12/31 08:25:05;;;;;;;2.03;1.80;;;;;;;9.57;100.00;96987.41;5114106;27;20493;-77
2021/12/31 08:27:31;;;;;;;2.57;2.37;;;;;;;9.64;100.00;96989.63;5114068;27;20544;-77
2021/12/31 08:29:58;;;;;;;4.23;3.70;;;;;;;9.71;100.00;96985.44;5097325;27;20523;-77
2021/12/31 08:32:25;;;;;;;3.47;3.17;;;;;;;9.62;100.00;96979.38;5113821;27;20495;-77
2021/12/31 08:34:51;;;;;;;3.10;2.67;;;;;;;9.50;100.00;96952.75;5097070;27;20469;-76
2021/12/31 08:37:18;;;;;;;5.87;3.53;;;;;;;9.58;100.00;96962.56;5114296;27;20483;-77
2021/12/31 08:39:45;;;;;;;5.93;3.90;;;;;;;9.68;100.00;96978.16;5114300;27;20849;-77
2021/12/31 08:42:11;;;;;;;3.47;2.73;;;;;;;9.79;100.00;96997.16;5113922;27;20528;-77
2021/12/31 08:44:38;;;;;;;2.40;1.93;;;;;;;9.56;100.00;96977.16;5121231;27;20467;-77
2021/12/31 08:47:05;;;;;;;5.27;2.77;;;;;;;9.59;100.00;96972.03;5104152;28;20474;-77
2021/12/31 08:49:32;;;;;;;2.77;2.17;;;;;;;9.61;100.00;96979.66;5067563;28;20880;-77
2021/12/31 08:52:00;;;;;;;6.30;1.97;;;;;;;9.78;100.00;97003.53;5093495;28;20910;-77
2021/12/31 08:54:29;;;;;;;2.47;2.27;;;;;;;9.63;100.00;97002.06;5112099;28;20422;-77
2021/12/31 08:56:55;;;;;;;3.10;1.97;;;;;;;9.78;100.00;97003.53;5093719;28;20533;-76
2021/12/31 08:59:22;;;;;;;2.20;1.80;;;;;;;9.83;100.00;97000.72;5093771;28;20455;-77
2021/12/31 09:01:49;;;;;;;3.50;2.33;;;;;;;9.68;100.00;96969.44;5111657;28;20441;-76
2021/12/31 09:04:16;;;;;;;4.13;2.80;;;;;;;9.84;100.00;96978.53;5093176;28;21047;-76
2021/12/31 09:06:43;;;;;;;3.17;2.07;;;;;;;9.75;100.00;96949.47;5093264;28;20496;-77
2021/12/31 09:09:10;;;;;;;3.27;2.30;;;;;;;9.71;100.00;96948.47;5093552;28;20442;-77
2021/12/31 09:11:36;;;;;;;2.90;2.50;;;;;;;9.66;100.00;96953.91;5111884;28;20435;-77
2021/12/31 09:14:03;;;;;;;3.20;2.70;;;;;;;9.80;100.00;96960.97;5093581;28;20430;-77
2021/12/31 09:16:30;;;;;;;3.20;1.80;;;;;;;9.76;100.00;96950.22;5093692;28;20469;-75
2021/12/31 09:18:57;;;;;;;3.07;2.50;;;;;;;9.91;100.00;96973.59;5111718;28;20809;-77
2021/12/31 09:21:23;;;;;;;3.07;2.27;;;;;;;9.85;100.00;96948.38;5092212;28;20477;-76
2021/12/31 09:23:50;;;;;;;3.30;2.00;;;;;;;9.86;100.00;96955.22;5092410;28;20466;-76
2021/12/31 09:26:17;;;;;;;2.00;1.80;;;;;;;9.91;100.00;96964.88;5093251;28;20492;-77
2021/12/31 09:28:44;;;;;;;1.70;1.60;;;;;;;10.00;100.00;96982.31;5111282;28;20450;-76
2021/12/31 09:31:12;;;;;;;9.20;2.13;;;;;;;9.97;100.00;96968.94;5093074;28;20495;-77
2021/12/31 09:33:40;;;;;;;3.30;2.47;;;;;;;10.03;100.00;96975.66;5076383;28;20470;-77
2021/12/31 09:36:07;;;;;;;2.60;2.40;;;;;;;10.04;100.00;96970.06;5076467;28;20442;-77
2021/12/31 09:38:33;;;;;;;2.17;1.97;;;;;;;9.94;100.00;96962.41;5076276;28;20545;-77
2021/12/31 09:41:00;;;;;;;6.30;2.53;;;;;;;10.07;100.00;96976.59;5074865;28;20873;-77
2021/12/31 09:43:27;;;;;;;3.23;2.27;;;;;;;10.06;100.00;96975.81;5071990;28;20490;-77
2021/12/31 09:45:53;;;;;;;3.10;2.87;;;;;;;9.99;100.00;96956.19;5074278;28;20443;-77
2021/12/31 09:48:22;;;;;;;3.60;2.70;;;;;;;10.09;100.00;96963.84;5060129;28;20455;-77
2021/12/31 09:50:53;;;;;;;2.03;1.80;;;;;;;10.19;100.00;96968.06;5094750;28;20820;-77
2021/12/31 09:53:20;;;;;;;2.50;2.27;;;;;;;10.08;100.00;96955.16;5059917;28;20459;-77
2021/12/31 09:55:51;;;;;;;2.47;2.27;;;;;;;10.22;100.00;96968.25;5094788;28;20427;-77
2021/12/31 09:58:20;;;;;;;2.30;1.70;;;;;;;10.23;100.00;96969.81;5076133;28;20489;-77
2021/12/31 10:00:50;;;;;;;5.10;2.30;;;;;;;10.14;100.00;96957.63;5094622;28;20435;-77
2021/12/31 10:03:25;;;;;;;2.03;1.90;;;;;;;10.16;100.00;96955.50;5059640;28;20435;-77
2021/12/31 10:05:53;;;;;;;2.10;2.00;;;;;;;10.07;100.00;96945.66;5094341;28;20950;-77
2021/12/31 10:08:26;;;;;;;2.17;1.90;;;;;;;10.22;100.00;96960.34;5093017;28;20989;-77
2021/12/31 10:11:10;;;;;;;2.80;2.60;;;;;;;10.25;100.00;96951.78;5087193;28;20453;-77
2021/12/31 10:13:43;;;;;;;2.70;2.30;;;;;;;10.12;100.00;96930.75;5079617;28;20426;-77
2021/12/31 10:16:20;;;;;;;4.33;2.20;;;;;;;10.30;100.00;96964.88;5096562;28;20458;-77
2021/12/31 10:18:48;;;;;;;2.67;2.10;;;;;;;10.23;100.00;96943.38;5096090;28;20458;-76
2021/12/31 10:21:19;;;;;;;2.43;2.23;;;;;;;10.35;100.00;96953.38;5114506;28;20521;-77
2021/12/31 10:23:47;;;;;;;2.40;2.30;;;;;;;10.47;100.00;96948.25;5079478;28;20458;-77
2021/12/31 10:26:17;;;;;;;2.30;2.10;;;;;;;10.50;100.00;96947.63;5095978;28;20476;-77
2021/12/31 10:28:58;;;;;;;2.40;2.30;;;;;;;10.45;100.00;96924.00;5095945;28;20454;-76
2021/12/31 10:31:27;;;;;;;2.17;2.07;;;;;;;10.61;100.00;96940.94;5096089;28;20430;-76
2021/12/31 10:33:54;;;;;;;4.70;2.27;;;;;;;10.49;100.00;96913.56;5114104;28;20952;-76
2021/12/31 10:36:38;;;;;;;3.00;2.57;;;;;;;10.64;100.00;96942.19;5095753;28;20427;-76
2021/12/31 10:39:22;;;;;;;5.90;2.80;;;;;;;10.58;100.00;96933.66;5089270;28;21038;-76
2021/12/31 10:41:51;;;;;;;3.23;1.93;;;;;;;10.71;100.00;96952.31;5075339;28;20485;-76
2021/12/31 10:44:18;;;;;;;3.20;2.60;;;;;;;10.70;100.00;96940.97;5075395;28;20467;-76
2021/12/31 10:46:46;;;;;;;2.47;2.27;;;;;;;10.63;100.00;96919.47;5075249;28;21019;-76
2021/12/31 10:49:13;;;;;;;14.90;12.30;;;;;;;10.73;100.00;96924.47;5075323;28;20469;-76
2021/12/31 10:51:43;;;;;;;6.33;5.73;;;;;;;10.70;100.00;96917.16;5093677;28;20829;-76
2021/12/31 10:54:27;;;;;;;5.87;3.20;;;;;;;10.88;100.00;96931.16;5075206;28;20496;-76
2021/12/31 10:56:56;;;;;;;4.90;2.27;;;;;;;10.94;100.00;96930.66;5075048;28;20443;-76
2021/12/31 10:59:23;;;;;;;4.10;3.73;;;;;;;11.09;100.00;96932.06;5075139;28;20522;-76
2021/12/31 11:01:50;;;;;;;3.33;2.97;;;;;;;11.14;100.00;96929.25;5079249;28;20490;-76
2021/12/31 11:04:23;;;;;;;2.40;2.00;;;;;;;11.02;100.00;96912.44;5075345;28;20481;-77
2021/12/31 11:06:50;;;;;;;2.30;1.93;;;;;;;11.09;100.00;96902.94;5075459;28;20510;-76
2021/12/31 11:09:23;;;;;;;3.17;2.50;;;;;;;11.34;100.00;96921.72;5058683;28;20503;-77
2021/12/31 11:11:51;;;;;;;1.90;1.80;;;;;;;11.36;100.00;96930.13;5058613;28;20435;-76
2021/12/31 11:14:18;;;;;;;1.70;1.57;;;;;;;11.11;100.00;96921.94;5074968;28;20439;-76
2021/12/31 11:16:45;;;;;;;3.73;1.70;;;;;;;11.13;100.00;96935.63;5075112;28;20431;-76
2021/12/31 11:19:12;;;;;;;2.00;1.80;;;;;;;11.16;100.00;96936.88;5074879;28;20449;-76
2021/12/31 11:21:39;;;;;;;2.07;1.67;;;;;;;11.08;100.00;96937.66;5075043;28;20856;-76
2021/12/31 11:24:37;;;;;;;5.73;2.40;;;;;;;11.02;100.00;96930.97;5058041;28;20869;-76
2021/12/31 11:27:25;;;;;;;2.03;1.83;;;;;;;10.91;100.00;96918.06;5092756;28;21142;-76
2021/12/31 11:29:53;;;;;;;1.60;1.43;;;;;;;10.81;100.00;96910.44;5086554;28;20447;-77
2021/12/31 11:32:48;;;;;;;2.13;1.93;;;;;;;10.93;100.00;96923.03;5057977;28;20500;-76
2021/12/31 11:35:36;;;;;;;2.27;2.07;;;;;;;10.88;100.00;96920.56;5074288;28;20522;-76
2021/12/31 11:38:15;;;;;;;1.90;1.80;;;;;;;10.91;100.00;96923.34;5092759;28;20446;-76
2021/12/31 11:40:49;;;;;;;2.23;2.13;;;;;;;10.91;100.00;96914.63;5074264;28;20431;-76